Bloomingdale, Indiana
Current Conditions -  °F | °C
As of 6:15 AM on Sunday 21 Dec 2014 (Local Time) from KPRG Reporting Station
Haze Haze  
Wind Chill: 23°   Ceiling: 3100
Heat Index: 29°   Visibility: 5mi
Dew Point: 28°   Wind: 6mph
Humidity: 94%   Direction: 140°SE
Pressure: 30.27"   Gusts: NA
Location:  39.83°N, 87.25°W
Report Text: KPRG 211115Z AUTO 14005KT 5SM BR OVC031 M02/M02 A3027 RMK AO2 T10161025
Loading
Personal Weather Stations






























Interactive Weather Map New forecast layout! Learn more

10-Day Weather Forecast

Advertisements
Track Severe Weather on mobile